Time,TemperatureF,DewpointF,PressureIn,WindDirection,WindDirectionDegrees,WindSpeedMPH,WindSpeedGustMPH,Humidity,HourlyPrecipIn,Conditions,Clouds,dailyrainin,SolarRadiationWatts/m^2,SoftwareType,DateUTC
2013-04-17 00:00:00,64.6,61.6,29.77,SSE,152,0.0,7.0,90,0.00,,,0.00,0,Wunderground v.1.15,2013-04-17 04:00:00,
2013-04-17 00:30:00,63.6,62.4,29.78,SE,146,0.0,7.0,96,0.00,,,0.00,0,Wunderground v.1.15,2013-04-17 04:30:00,
2013-04-17 01:00:00,62.6,62.6,29.77,SSE,147,2.0,7.0,100,0.00,,,0.00,0,Wunderground v.1.15,2013-04-17 05:00:00,
2013-04-17 01:30:00,62.1,62.1,29.76,SSE,151,2.0,7.0,100,0.00,,,0.00,0,Wunderground v.1.15,2013-04-17 05:30:00,
2013-04-17 02:00:00,61.8,61.8,29.75,SSE,150,0.0,7.0,100,0.00,,,0.00,0,Wunderground v.1.15,2013-04-17 06:00:00,
2013-04-17 02:30:00,61.2,61.2,29.74,SE,139,1.0,7.0,100,0.00,,,0.00,0,Wunderground v.1.15,2013-04-17 06:30:00,
2013-04-17 03:00:00,61.0,61.0,29.73,SE,143,0.0,7.0,100,0.00,,,0.00,0,Wunderground v.1.15,2013-04-17 07:00:00,
2013-04-17 03:30:00,60.7,60.7,29.73,SE,141,0.0,7.0,100,0.00,,,0.00,0,Wunderground v.1.15,2013-04-17 07:30:00,
2013-04-17 04:00:00,60.2,60.2,29.73,North,10,0.0,7.0,100,0.00,,,0.00,0,Wunderground v.1.15,2013-04-17 08:00:00,
2013-04-17 04:30:00,59.6,59.6,29.74,South,174,0.0,7.0,100,0.00,,,0.00,0,Wunderground v.1.15,2013-04-17 08:30:00,
2013-04-17 05:00:00,58.7,58.7,29.75,South,179,0.0,7.0,100,0.00,,,0.00,0,Wunderground v.1.15,2013-04-17 09:00:00,
2013-04-17 05:30:00,58.4,58.4,29.76,SE,143,0.0,7.0,100,0.00,,,0.00,0,Wunderground v.1.15,2013-04-17 09:30:00,
2013-04-17 06:00:00,57.5,57.5,29.77,NNE,23,0.0,7.0,100,0.00,,,0.00,0,Wunderground v.1.15,2013-04-17 10:00:00,
2013-04-17 06:30:00,57.1,57.1,29.78,NNE,22,0.0,7.0,100,0.00,,,0.00,0,Wunderground v.1.15,2013-04-17 10:30:00,
2013-04-17 07:00:00,57.3,57.3,29.78,NNE,21,0.0,7.0,100,0.00,,,0.00,0,Wunderground v.1.15,2013-04-17 11:00:00,
2013-04-17 07:30:00,57.4,57.4,29.79,NNE,20,0.0,7.0,100,0.00,,,0.00,0,Wunderground v.1.15,2013-04-17 11:30:00,
2013-04-17 08:00:00,60.3,60.3,29.80,NNE,25,3.0,7.0,100,0.00,,,0.00,0,Wunderground v.1.15,2013-04-17 12:00:00,
2013-04-17 08:30:00,60.8,60.8,29.81,NNE,28,0.0,7.0,100,0.00,,,0.00,0,Wunderground v.1.15,2013-04-17 12:30:00,
2013-04-17 09:00:00,60.8,60.8,29.81,NNE,31,1.0,7.0,100,0.00,,,0.00,0,Wunderground v.1.15,2013-04-17 13:00:00,
2013-04-17 09:30:00,63.2,63.2,29.81,NE,34,0.0,7.0,100,0.00,,,0.00,0,Wunderground v.1.15,2013-04-17 13:30:00,
2013-04-17 10:00:00,64.8,64.8,29.81,NNE,30,0.0,7.0,100,0.00,,,0.00,0,Wunderground v.1.15,2013-04-17 14:00:00,
2013-04-17 10:30:00,65.4,65.4,29.82,NNE,30,1.0,7.0,100,0.00,,,0.00,0,Wunderground v.1.15,2013-04-17 14:30:00,
2013-04-17 11:00:00,60.8,60.2,29.83,North,2,10.0,10.0,98,0.00,,,0.00,0,Wunderground v.1.15,2013-04-17 15:00:00,
2013-04-17 11:30:00,59.1,59.1,29.83,North,2,4.0,7.0,100,0.00,,,0.00,0,Wunderground v.1.15,2013-04-17 15:30:00,
2013-04-17 12:00:00,59.1,58.8,29.84,NNE,28,9.0,9.0,99,0.00,,,0.00,0,Wunderground v.1.15,2013-04-17 16:00:00,
2013-04-17 12:30:00,58.8,56.2,29.84,North,3,5.0,7.0,91,0.00,,,0.00,0,Wunderground v.1.15,2013-04-17 16:30:00,
2013-04-17 13:00:00,60.0,57.1,29.84,NE,39,9.0,9.0,90,0.00,,,0.00,0,Wunderground v.1.15,2013-04-17 17:00:00,
2013-04-17 13:30:00,62.1,58.5,29.83,NNE,21,1.0,7.0,88,0.00,,,0.00,0,Wunderground v.1.15,2013-04-17 17:30:00,
2013-04-17 14:00:00,62.9,58.0,29.82,NNE,18,3.0,7.0,84,0.00,,,0.00,0,Wunderground v.1.15,2013-04-17 18:00:00,
2013-04-17 14:30:00,63.6,58.3,29.82,NNE,18,1.0,7.0,83,0.00,,,0.00,0,Wunderground v.1.15,2013-04-17 18:30:00,
2013-04-17 15:00:00,64.3,58.3,29.81,NNE,22,3.0,7.0,81,0.00,,,0.00,0,Wunderground v.1.15,2013-04-17 19:00:00,
2013-04-17 15:30:00,66.2,59.5,29.80,NNE,26,3.0,7.0,79,0.00,,,0.00,0,Wunderground v.1.15,2013-04-17 19:30:00,
2013-04-17 16:00:00,67.0,58.8,29.79,NE,34,5.0,7.0,75,0.00,,,0.00,0,Wunderground v.1.15,2013-04-17 20:00:00,
2013-04-17 16:30:00,68.7,60.1,29.80,NE,37,3.0,7.0,74,0.00,,,0.00,0,Wunderground v.1.15,2013-04-17 20:30:00,
2013-04-17 17:00:00,68.2,60.3,29.79,NE,36,0.0,7.0,76,0.00,,,0.00,0,Wunderground v.1.15,2013-04-17 21:00:00,
2013-04-17 17:30:00,68.0,59.8,29.78,NE,37,5.0,7.0,75,0.00,,,0.00,0,Wunderground v.1.15,2013-04-17 21:30:00,
2013-04-17 18:00:00,67.4,60.3,29.78,NE,36,6.0,7.0,78,0.00,,,0.00,0,Wunderground v.1.15,2013-04-17 22:00:00,
2013-04-17 18:30:00,67.2,60.1,29.79,NNE,33,4.0,7.0,78,0.00,,,0.00,0,Wunderground v.1.15,2013-04-17 22:30:00,
2013-04-17 19:00:00,67.4,59.6,29.79,ENE,62,4.0,7.0,76,0.00,,,0.00,0,Wunderground v.1.15,2013-04-17 23:00:00,
2013-04-17 19:30:00,66.6,59.2,29.80,WSW,251,0.0,7.0,77,0.00,,,0.00,0,Wunderground v.1.15,2013-04-17 23:30:00,
2013-04-17 20:00:00,64.6,57.9,29.80,WSW,251,0.0,7.0,79,0.00,,,0.00,0,Wunderground v.1.15,2013-04-18 00:00:00,
2013-04-17 20:30:00,63.8,57.9,29.80,WSW,254,0.0,7.0,81,0.00,,,0.00,0,Wunderground v.1.15,2013-04-18 00:30:00,
2013-04-17 21:00:00,63.6,58.0,29.81,WSW,253,0.0,7.0,82,0.00,,,0.00,0,Wunderground v.1.15,2013-04-18 01:00:00,
2013-04-17 21:30:00,63.5,57.9,29.81,WSW,253,0.0,7.0,82,0.00,,,0.00,0,Wunderground v.1.15,2013-04-18 01:30:00,
2013-04-17 22:00:00,62.7,56.4,29.82,WSW,255,1.0,7.0,80,0.00,,,0.00,0,Wunderground v.1.15,2013-04-18 02:00:00,
2013-04-17 22:30:00,62.7,56.4,29.82,WSW,255,0.0,7.0,80,0.00,,,0.00,0,Wunderground v.1.15,2013-04-18 02:30:00,
2013-04-17 23:00:00,62.6,57.0,29.83,NNE,18,0.0,7.0,82,0.00,,,0.00,0,Wunderground v.1.15,2013-04-18 03:00:00,
2013-04-17 23:30:00,62.1,57.2,29.82,NNE,27,2.0,7.0,84,0.00,,,0.00,0,Wunderground v.1.15,2013-04-18 03:30:00,